createdAt,value
2022-08-27T00:00:58.711Z,24.94
2022-08-27T00:03:30.925Z,24.95
2022-08-27T00:06:03.417Z,24.96
2022-08-27T00:08:35.644Z,24.96
2022-08-27T00:11:08.072Z,24.91
2022-08-27T00:13:41.564Z,24.88
2022-08-27T00:16:16.139Z,24.87
2022-08-27T00:18:49.752Z,24.84
2022-08-27T00:21:21.943Z,24.80
2022-08-27T00:23:54.411Z,24.79
2022-08-27T00:26:26.848Z,24.80
2022-08-27T00:28:59.136Z,24.75
2022-08-27T00:31:31.367Z,24.72
2022-08-27T00:34:03.581Z,24.73
2022-08-27T00:36:35.748Z,24.74
2022-08-27T00:39:07.956Z,24.75
2022-08-27T00:41:41.961Z,24.76
2022-08-27T00:44:14.789Z,24.78
2022-08-27T00:46:50.658Z,24.78
2022-08-27T00:49:27.986Z,24.76
2022-08-27T00:52:05.536Z,24.72
2022-08-27T00:54:38.024Z,24.69
2022-08-27T00:57:10.508Z,24.63
2022-08-27T00:59:43.487Z,24.60
2022-08-27T01:02:21.630Z,24.54
2022-08-27T01:04:57.582Z,24.50
2022-08-27T01:07:33.215Z,24.47
2022-08-27T01:10:08.446Z,24.43
2022-08-27T01:12:41.107Z,24.41
2022-08-27T01:15:20.207Z,24.39
2022-08-27T01:17:53.415Z,24.35
2022-08-27T01:20:30.663Z,24.29
2022-08-27T01:23:11.415Z,24.25
2022-08-27T01:25:46.001Z,24.27
2022-08-27T01:28:21.794Z,24.28
2022-08-27T01:30:56.068Z,24.31
2022-08-27T01:33:28.196Z,24.32
2022-08-27T01:36:00.667Z,24.33
2022-08-27T01:38:33.646Z,24.30
2022-08-27T01:41:06.661Z,24.25
2022-08-27T01:43:38.856Z,24.22
2022-08-27T01:46:11.074Z,24.19
2022-08-27T01:48:43.359Z,24.19
2022-08-27T01:51:15.561Z,24.19
2022-08-27T01:53:48.131Z,24.18
2022-08-27T01:56:20.295Z,24.18
2022-08-27T01:58:52.472Z,24.17
2022-08-27T02:01:24.771Z,24.12
2022-08-27T02:03:57.000Z,24.06
2022-08-27T02:06:29.158Z,24.06
2022-08-27T02:09:01.354Z,24.06
2022-08-27T02:11:33.518Z,24.06
2022-08-27T02:14:16.042Z,24.06
2022-08-27T02:16:52.648Z,24.03
2022-08-27T02:19:25.559Z,24.03
2022-08-27T02:22:00.552Z,24.02
2022-08-27T02:24:32.815Z,24.03
2022-08-27T02:27:05.048Z,24.03
2022-08-27T02:29:37.357Z,24.02
2022-08-27T02:32:22.503Z,24.01
2022-08-27T02:35:04.631Z,23.99
2022-08-27T02:37:37.623Z,23.98
2022-08-27T02:40:17.221Z,23.99
2022-08-27T02:42:49.963Z,23.97
2022-08-27T02:45:23.651Z,23.94
2022-08-27T02:47:55.873Z,23.94
2022-08-27T02:50:28.082Z,23.93
2022-08-27T02:53:01.353Z,23.91
2022-08-27T02:55:34.386Z,23.90
2022-08-27T02:58:09.612Z,23.90
2022-08-27T03:00:42.308Z,23.89
2022-08-27T03:03:14.608Z,23.87
2022-08-27T03:05:46.959Z,23.87
2022-08-27T03:08:19.211Z,23.86
2022-08-27T03:10:51.862Z,23.83
2022-08-27T03:13:26.016Z,23.82
2022-08-27T03:15:58.213Z,23.81
2022-08-27T03:18:32.428Z,23.80
2022-08-27T03:21:04.647Z,23.79
2022-08-27T03:23:37.188Z,23.75
2022-08-27T03:26:13.561Z,23.68
2022-08-27T03:28:46.895Z,23.64
2022-08-27T03:31:27.340Z,23.62
2022-08-27T03:34:01.810Z,23.60
2022-08-27T03:36:34.087Z,23.57
2022-08-27T03:39:06.776Z,23.48
2022-08-27T03:41:43.469Z,23.39
2022-08-27T03:44:27.428Z,23.34
2022-08-27T03:47:00.148Z,23.28
2022-08-27T03:49:32.855Z,23.23
2022-08-27T03:52:05.696Z,23.21
2022-08-27T03:54:39.235Z,23.23
2022-08-27T03:57:11.466Z,23.25
2022-08-27T03:59:43.667Z,23.27
2022-08-27T04:02:16.459Z,23.30
2022-08-27T04:04:48.654Z,23.34
2022-08-27T04:07:21.749Z,23.36
2022-08-27T04:09:54.056Z,23.37
2022-08-27T04:12:27.112Z,23.37
2022-08-27T04:14:59.293Z,23.38
2022-08-27T04:17:31.511Z,23.39
2022-08-27T04:20:24.880Z,23.40
2022-08-27T04:22:56.657Z,23.41
2022-08-27T04:25:28.808Z,23.41
2022-08-27T04:28:00.982Z,23.39
2022-08-27T04:30:33.278Z,23.36
2022-08-27T04:33:05.599Z,23.30
2022-08-27T04:35:37.922Z,23.35
2022-08-27T04:38:10.520Z,23.36
2022-08-27T04:41:00.259Z,23.38
2022-08-27T04:43:32.598Z,23.42
2022-08-27T04:46:04.873Z,23.45
2022-08-27T04:48:38.469Z,23.48
2022-08-27T04:51:11.953Z,23.52
2022-08-27T04:53:46.840Z,23.57
2022-08-27T04:56:21.840Z,23.60
2022-08-27T04:58:54.638Z,23.63
2022-08-27T05:01:29.881Z,23.67
2022-08-27T05:04:02.227Z,23.72
2022-08-27T05:06:34.732Z,23.76
2022-08-27T05:09:07.651Z,23.83
2022-08-27T05:11:40.041Z,23.88
2022-08-27T05:14:14.648Z,23.95
2022-08-27T05:16:47.526Z,24.01
2022-08-27T05:19:19.784Z,24.01
2022-08-27T05:21:53.974Z,24.03
2022-08-27T05:24:26.237Z,24.04
2022-08-27T05:26:58.385Z,24.03
2022-08-27T05:29:31.854Z,24.03
2022-08-27T05:32:04.224Z,24.04
2022-08-27T05:34:36.655Z,24.08
2022-08-27T05:37:09.173Z,24.13
2022-08-27T05:39:41.439Z,24.16
2022-08-27T05:42:13.749Z,24.21
2022-08-27T05:44:46.393Z,24.29
2022-08-27T05:47:18.587Z,24.36
2022-08-27T05:49:52.615Z,24.44
2022-08-27T05:52:24.759Z,24.50
2022-08-27T05:54:57.424Z,24.58
2022-08-27T05:57:29.689Z,24.66
2022-08-27T06:00:19.231Z,24.73
2022-08-27T06:02:51.650Z,24.82
2022-08-27T06:05:24.173Z,24.89
2022-08-27T06:07:56.352Z,24.96
2022-08-27T06:10:28.536Z,25.01
2022-08-27T06:13:00.747Z,25.05
2022-08-27T06:15:33.206Z,25.10
2022-08-27T06:18:05.552Z,25.17
2022-08-27T06:20:37.737Z,25.24
2022-08-27T06:23:10.263Z,25.32
2022-08-27T06:25:44.428Z,25.43
2022-08-27T06:28:16.682Z,25.54
2022-08-27T06:30:48.980Z,25.65
2022-08-27T06:33:21.414Z,25.77
2022-08-27T06:35:53.856Z,25.92
2022-08-27T06:38:26.884Z,26.07
2022-08-27T06:40:59.088Z,26.24
2022-08-27T06:43:31.220Z,26.43
2022-08-27T06:46:07.340Z,26.67
2022-08-27T06:48:40.124Z,26.97
2022-08-27T06:51:13.778Z,27.28
2022-08-27T06:53:47.358Z,27.59
2022-08-27T06:56:22.021Z,27.91
2022-08-27T06:58:58.144Z,28.23
2022-08-27T07:01:32.523Z,28.54
2022-08-27T07:04:07.845Z,28.81
2022-08-27T07:06:41.412Z,29.10
2022-08-27T07:09:14.406Z,29.37
2022-08-27T07:11:46.747Z,29.65
2022-08-27T07:14:20.631Z,29.92
2022-08-27T07:16:52.813Z,30.20
2022-08-27T07:19:25.359Z,30.49
2022-08-27T07:21:57.605Z,30.75
2022-08-27T07:24:29.739Z,31.03
2022-08-27T07:27:01.892Z,31.26
2022-08-27T07:29:34.190Z,31.42
2022-08-27T07:32:06.889Z,31.59
2022-08-27T07:34:39.096Z,31.76
2022-08-27T07:37:11.287Z,31.97
2022-08-27T07:39:43.518Z,32.19
2022-08-27T07:42:33.076Z,32.41
2022-08-27T07:45:05.620Z,32.67
2022-08-27T07:47:38.483Z,32.91
2022-08-27T07:50:11.729Z,33.14
2022-08-27T07:52:44.939Z,33.38
2022-08-27T07:55:17.776Z,33.58
2022-08-27T07:57:50.220Z,33.79
2022-08-27T08:00:22.693Z,34.02
2022-08-27T08:02:54.931Z,34.22
2022-08-27T08:05:27.196Z,34.31
2022-08-27T08:07:59.312Z,34.36
2022-08-27T08:10:35.382Z,34.53
2022-08-27T08:13:08.215Z,34.77
2022-08-27T08:15:40.399Z,34.99
2022-08-27T08:18:12.657Z,35.21
2022-08-27T08:20:57.690Z,35.49
2022-08-27T08:23:32.539Z,35.74
2022-08-27T08:26:05.220Z,35.97
2022-08-27T08:28:37.851Z,36.13
2022-08-27T08:31:10.306Z,36.29
2022-08-27T08:33:42.587Z,36.41
2022-08-27T08:36:16.761Z,36.52
2022-08-27T08:38:51.055Z,36.62
2022-08-27T08:41:39.871Z,36.75
2022-08-27T08:44:26.716Z,36.89
2022-08-27T08:47:04.412Z,36.85
2022-08-27T08:49:50.834Z,36.66
2022-08-27T08:52:40.292Z,36.38
2022-08-27T08:55:28.218Z,36.46
2022-08-27T08:58:14.215Z,36.40
2022-08-27T09:00:50.021Z,36.29
2022-08-27T09:03:22.407Z,36.25
2022-08-27T09:06:02.709Z,36.19
2022-08-27T09:08:41.172Z,36.26
2022-08-27T09:11:25.422Z,36.55
2022-08-27T09:14:01.111Z,36.73
2022-08-27T09:16:33.503Z,36.89
2022-08-27T09:19:07.569Z,37.03
2022-08-27T09:21:55.437Z,37.23
2022-08-27T09:24:38.456Z,37.31
2022-08-27T09:27:14.843Z,37.48
2022-08-27T09:29:53.264Z,37.69
2022-08-27T09:32:28.472Z,37.70
2022-08-27T09:35:04.343Z,37.52
2022-08-27T09:37:44.401Z,37.56
2022-08-27T09:40:27.304Z,37.73
2022-08-27T09:43:07.472Z,37.85
2022-08-27T09:45:47.854Z,37.88
2022-08-27T09:48:23.482Z,37.63
2022-08-27T09:50:58.258Z,37.31
2022-08-27T09:53:35.351Z,37.39
2022-08-27T09:56:11.154Z,37.41
2022-08-27T09:58:56.634Z,37.35
2022-08-27T10:01:31.186Z,37.42
2022-08-27T10:04:13.619Z,37.29
2022-08-27T10:06:51.239Z,37.08
2022-08-27T10:09:30.053Z,37.15
2022-08-27T10:12:06.836Z,37.25
2022-08-27T10:14:43.967Z,37.46
2022-08-27T10:17:24.327Z,37.62
2022-08-27T10:20:04.509Z,37.73
2022-08-27T10:22:47.192Z,37.81
2022-08-27T10:25:29.843Z,37.99
2022-08-27T10:28:12.316Z,38.12
2022-08-27T10:30:59.597Z,38.17
2022-08-27T10:33:41.523Z,38.14
2022-08-27T10:36:26.775Z,38.16
2022-08-27T10:39:07.747Z,38.18
2022-08-27T10:41:47.116Z,38.15
2022-08-27T10:44:44.091Z,38.10
2022-08-27T10:47:31.948Z,38.07
2022-08-27T10:50:08.049Z,38.11
2022-08-27T10:52:45.124Z,38.22
2022-08-27T10:55:24.048Z,38.31
2022-08-27T10:58:13.406Z,38.11
2022-08-27T11:00:56.367Z,37.79
2022-08-27T11:03:35.539Z,37.58
2022-08-27T11:06:15.788Z,37.45
2022-08-27T11:08:52.115Z,37.35
2022-08-27T11:14:34.314Z,37.21
2022-08-27T11:17:12.225Z,37.09
2022-08-27T11:19:54.349Z,37.01
2022-08-27T11:22:32.222Z,36.87
2022-08-27T11:25:10.828Z,36.67
2022-08-27T11:27:44.308Z,36.52
2022-08-27T11:30:29.896Z,36.23
2022-08-27T11:33:14.299Z,35.97
2022-08-27T11:35:59.101Z,35.81
2022-08-27T11:38:51.559Z,35.61
2022-08-27T11:41:49.110Z,35.37
2022-08-27T11:44:23.655Z,35.25
2022-08-27T11:46:56.552Z,35.15
2022-08-27T11:49:36.193Z,35.06
2022-08-27T11:52:10.674Z,34.97
2022-08-27T11:54:51.053Z,34.91
2022-08-27T11:57:33.047Z,34.89
2022-08-27T12:00:21.659Z,34.86
2022-08-27T12:03:06.347Z,34.79
2022-08-27T12:05:42.532Z,34.70
2022-08-27T12:08:34.869Z,34.61
2022-08-27T12:11:19.040Z,34.53
2022-08-27T12:14:01.932Z,34.43
2022-08-27T12:16:42.217Z,34.34
2022-08-27T12:19:29.575Z,34.26
2022-08-27T12:22:16.500Z,34.17
2022-08-27T12:24:55.582Z,34.10
2022-08-27T12:27:36.006Z,34.04
2022-08-27T12:30:22.112Z,33.99
2022-08-27T12:32:54.997Z,33.94
2022-08-27T12:35:41.963Z,33.87
2022-08-27T12:38:19.924Z,33.77
2022-08-27T12:40:55.151Z,33.75
2022-08-27T12:43:29.798Z,33.77
2022-08-27T12:46:06.648Z,33.78
2022-08-27T12:48:43.242Z,33.79
2022-08-27T12:51:20.645Z,33.78
2022-08-27T12:53:59.619Z,33.78
2022-08-27T12:56:45.661Z,33.68
2022-08-27T12:59:39.561Z,33.65
2022-08-27T13:02:30.043Z,33.60
2022-08-27T13:05:10.347Z,33.55
2022-08-27T13:07:46.578Z,33.53
2022-08-27T13:10:22.239Z,33.47
2022-08-27T13:13:06.256Z,33.38
2022-08-27T13:15:43.133Z,33.31
2022-08-27T13:18:16.208Z,33.29
2022-08-27T13:20:53.102Z,33.26
2022-08-27T13:23:28.140Z,33.22
2022-08-27T13:26:06.138Z,33.15
2022-08-27T13:28:42.363Z,33.14
2022-08-27T13:31:15.701Z,33.14
2022-08-27T13:33:48.539Z,33.14
2022-08-27T13:36:32.090Z,33.13
2022-08-27T13:39:07.126Z,33.12
2022-08-27T13:41:41.034Z,33.11
2022-08-27T13:44:16.751Z,33.11
2022-08-27T13:46:51.826Z,33.11
2022-08-27T13:49:27.074Z,33.10
2022-08-27T13:52:08.460Z,33.09
2022-08-27T13:54:40.700Z,33.10
2022-08-27T13:57:23.826Z,33.10
2022-08-27T13:59:56.259Z,33.07
2022-08-27T14:02:33.358Z,33.04
2022-08-27T14:05:13.862Z,32.99
2022-08-27T14:07:48.714Z,32.97
2022-08-27T14:10:32.658Z,32.97
2022-08-27T14:13:07.290Z,32.92
2022-08-27T14:15:42.404Z,32.91
2022-08-27T14:18:48.015Z,32.89
2022-08-27T14:21:19.191Z,32.85
2022-08-27T14:23:51.679Z,32.84
2022-08-27T14:26:23.947Z,32.86
2022-08-27T14:28:57.138Z,32.87
2022-08-27T14:31:30.083Z,32.88
2022-08-27T14:34:02.600Z,32.87
2022-08-27T14:36:38.668Z,32.88
2022-08-27T14:39:11.911Z,32.89
2022-08-27T14:41:44.207Z,32.85
2022-08-27T14:44:17.022Z,32.83
2022-08-27T14:46:49.587Z,32.81
2022-08-27T14:49:27.445Z,32.78
2022-08-27T14:51:59.739Z,32.76
2022-08-27T14:54:33.335Z,32.70
2022-08-27T14:57:07.365Z,32.64
2022-08-27T14:59:40.748Z,32.57
2022-08-27T15:02:15.090Z,32.54
2022-08-27T15:04:48.046Z,32.51
2022-08-27T15:07:23.508Z,32.44
2022-08-27T15:09:56.098Z,32.38
2022-08-27T15:12:28.562Z,32.33
2022-08-27T15:15:00.815Z,32.29
2022-08-27T15:17:34.393Z,32.27
2022-08-27T15:20:11.834Z,32.24
2022-08-27T15:22:53.992Z,32.20
2022-08-27T15:25:26.798Z,32.17
2022-08-27T15:27:59.083Z,32.18
2022-08-27T15:30:31.914Z,32.17
2022-08-27T15:33:05.319Z,32.16
2022-08-27T15:35:37.751Z,32.14
2022-08-27T15:38:11.006Z,32.10
2022-08-27T15:40:43.775Z,32.08
2022-08-27T15:43:18.184Z,32.05
2022-08-27T15:45:50.340Z,32.01
2022-08-27T15:48:22.566Z,31.99
2022-08-27T15:50:55.608Z,31.95
2022-08-27T15:53:27.900Z,31.92
2022-08-27T15:56:00.090Z,31.89
2022-08-27T15:58:32.547Z,31.85
2022-08-27T16:01:10.664Z,31.82
2022-08-27T16:03:45.173Z,31.82
2022-08-27T16:06:19.613Z,31.80
2022-08-27T16:08:52.176Z,31.78
2022-08-27T16:11:24.871Z,31.65
2022-08-27T16:13:57.166Z,31.54
2022-08-27T16:16:33.404Z,31.42
2022-08-27T16:19:08.931Z,31.29
2022-08-27T16:21:41.423Z,31.17
2022-08-27T16:24:14.082Z,31.04
2022-08-27T16:26:46.591Z,30.94
2022-08-27T16:29:19.180Z,30.87
2022-08-27T16:31:51.439Z,30.81
2022-08-27T16:34:27.168Z,30.76
2022-08-27T16:37:00.278Z,30.74
2022-08-27T16:39:35.417Z,30.75
2022-08-27T16:42:10.947Z,30.76
2022-08-27T16:44:43.072Z,30.76
2022-08-27T16:47:15.260Z,30.73
2022-08-27T16:50:05.046Z,30.67
2022-08-27T16:52:37.379Z,30.62
2022-08-27T16:55:11.930Z,30.57
2022-08-27T16:57:44.079Z,30.52
2022-08-27T17:00:16.717Z,30.43
2022-08-27T17:02:49.015Z,30.32
2022-08-27T17:05:33.980Z,30.25
2022-08-27T17:08:11.703Z,30.17
2022-08-27T17:10:48.716Z,30.08
2022-08-27T17:13:28.281Z,30.01
2022-08-27T17:16:02.575Z,29.91
2022-08-27T17:18:35.375Z,29.81
2022-08-27T17:21:08.058Z,29.73
2022-08-27T17:23:43.273Z,29.68
2022-08-27T17:26:17.316Z,29.62
2022-08-27T17:28:49.581Z,29.58
2022-08-27T17:31:28.059Z,29.51
2022-08-27T17:34:02.527Z,29.42
2022-08-27T17:36:35.193Z,29.36
2022-08-27T17:39:07.995Z,29.29
2022-08-27T17:41:43.424Z,29.23
2022-08-27T17:44:25.982Z,29.18
2022-08-27T17:47:00.451Z,29.14
2022-08-27T17:49:33.006Z,29.07
2022-08-27T17:52:09.759Z,28.98
2022-08-27T17:54:44.838Z,28.91
2022-08-27T17:57:20.052Z,28.85
2022-08-27T17:59:53.583Z,28.75
2022-08-27T18:02:31.715Z,28.66
2022-08-27T18:05:04.804Z,28.60
2022-08-27T18:07:39.982Z,28.55
2022-08-27T18:10:14.847Z,28.50
2022-08-27T18:12:47.726Z,28.46
2022-08-27T18:15:23.042Z,28.42
2022-08-27T18:17:55.790Z,28.39
2022-08-27T18:20:30.351Z,28.36
2022-08-27T18:23:02.867Z,28.33
2022-08-27T18:25:36.850Z,28.28
2022-08-27T18:28:11.464Z,28.25
2022-08-27T18:30:46.308Z,28.22
2022-08-27T18:33:18.759Z,28.21
2022-08-27T18:35:51.974Z,28.18
2022-08-27T18:38:24.316Z,28.17
2022-08-27T18:40:57.749Z,28.14
2022-08-27T18:43:35.069Z,28.09
2022-08-27T18:46:07.880Z,28.05
2022-08-27T18:48:40.304Z,28.01
2022-08-27T18:51:15.914Z,27.98
2022-08-27T18:53:49.293Z,27.95
2022-08-27T18:56:22.696Z,27.92
2022-08-27T18:58:54.834Z,27.89
2022-08-27T19:01:29.132Z,27.86
2022-08-27T19:04:01.489Z,27.80
2022-08-27T19:06:34.262Z,27.75
2022-08-27T19:09:07.510Z,27.71
2022-08-27T19:11:39.700Z,27.67
2022-08-27T19:14:11.837Z,27.64
2022-08-27T19:16:46.900Z,27.60
2022-08-27T19:19:18.971Z,27.57
2022-08-27T19:21:51.781Z,27.54
2022-08-27T19:24:24.678Z,27.53
2022-08-27T19:26:57.088Z,27.52
2022-08-27T19:29:29.293Z,27.50
2022-08-27T19:32:01.503Z,27.49
2022-08-27T19:34:33.756Z,27.48
2022-08-27T19:37:08.111Z,27.46
2022-08-27T19:39:40.959Z,27.45
2022-08-27T19:42:13.123Z,27.40
2022-08-27T19:44:45.770Z,27.35
2022-08-27T19:47:25.347Z,27.33
2022-08-27T19:49:58.210Z,27.27
2022-08-27T19:52:30.599Z,27.24
2022-08-27T19:55:13.746Z,27.23
2022-08-27T19:57:48.141Z,27.23
2022-08-27T20:00:24.715Z,27.23
2022-08-27T20:03:00.175Z,27.23
2022-08-27T20:05:32.557Z,27.21
2022-08-27T20:08:05.921Z,27.21
2022-08-27T20:10:39.029Z,27.20
2022-08-27T20:13:11.255Z,27.17
2022-08-27T20:15:43.674Z,27.13
2022-08-27T20:18:16.999Z,27.10
2022-08-27T20:20:49.263Z,27.08
2022-08-27T20:23:21.425Z,27.07
2022-08-27T20:26:00.477Z,27.07
2022-08-27T20:28:39.408Z,27.02
2022-08-27T20:31:12.764Z,26.94
2022-08-27T20:33:45.386Z,26.90
2022-08-27T20:36:17.639Z,26.89
2022-08-27T20:38:49.803Z,26.86
2022-08-27T20:41:22.446Z,26.82
2022-08-27T20:43:54.766Z,26.79
2022-08-27T20:46:30.674Z,26.76
2022-08-27T20:49:03.313Z,26.74
2022-08-27T20:51:51.311Z,26.71
2022-08-27T20:54:27.734Z,26.66
2022-08-27T20:57:00.207Z,26.61
2022-08-27T20:59:50.371Z,26.58
2022-08-27T21:02:26.627Z,26.56
2022-08-27T21:05:06.485Z,26.54
2022-08-27T21:07:38.736Z,26.52
2022-08-27T21:10:12.668Z,26.49
2022-08-27T21:12:45.494Z,26.47
2022-08-27T21:15:17.942Z,26.44
2022-08-27T21:17:50.077Z,26.41
2022-08-27T21:20:22.468Z,26.39
2022-08-27T21:22:56.203Z,26.36
2022-08-27T21:25:29.221Z,26.35
2022-08-27T21:28:03.687Z,26.34
2022-08-27T21:30:36.190Z,26.34
2022-08-27T21:33:08.475Z,26.32
2022-08-27T21:35:40.711Z,26.28
2022-08-27T21:38:13.348Z,26.25
2022-08-27T21:40:45.875Z,26.21
2022-08-27T21:43:18.021Z,26.20
2022-08-27T21:45:53.659Z,26.18
2022-08-27T21:48:26.844Z,26.15
2022-08-27T21:50:59.160Z,26.12
2022-08-27T21:53:32.127Z,26.09
2022-08-27T21:56:04.639Z,26.07
2022-08-27T21:58:37.147Z,26.05
2022-08-27T22:01:09.890Z,26.03
2022-08-27T22:03:46.910Z,26.01
2022-08-27T22:06:19.807Z,25.99
2022-08-27T22:08:52.036Z,25.96
2022-08-27T22:11:24.663Z,25.94
2022-08-27T22:13:59.599Z,25.92
2022-08-27T22:16:31.752Z,25.89
2022-08-27T22:19:03.940Z,25.87
2022-08-27T22:21:36.496Z,25.86
2022-08-27T22:24:09.760Z,25.85
2022-08-27T22:26:42.043Z,25.82
2022-08-27T22:29:16.352Z,25.79
2022-08-27T22:31:48.676Z,25.76
2022-08-27T22:34:21.943Z,25.74
2022-08-27T22:36:54.148Z,25.73
2022-08-27T22:39:26.811Z,25.69
2022-08-27T22:42:00.329Z,25.72
2022-08-27T22:44:32.678Z,25.72
2022-08-27T22:47:05.094Z,25.71
2022-08-27T22:49:37.615Z,25.71
2022-08-27T22:52:10.007Z,25.71
2022-08-27T22:54:42.256Z,25.70
2022-08-27T22:57:14.811Z,25.68
2022-08-27T22:59:47.121Z,25.65
2022-08-27T23:02:19.235Z,25.62
2022-08-27T23:04:55.542Z,25.58
2022-08-27T23:07:28.285Z,25.58
2022-08-27T23:10:01.111Z,25.58
2022-08-27T23:12:34.307Z,25.58
2022-08-27T23:15:12.409Z,25.58
2022-08-27T23:17:44.628Z,25.57
2022-08-27T23:20:17.731Z,25.51
2022-08-27T23:22:50.512Z,25.49
2022-08-27T23:25:43.393Z,25.48
2022-08-27T23:28:16.864Z,25.44
2022-08-27T23:30:49.527Z,25.35
2022-08-27T23:33:22.080Z,25.31
2022-08-27T23:35:54.250Z,25.27
2022-08-27T23:38:26.637Z,25.27
2022-08-27T23:40:58.991Z,25.27
2022-08-27T23:43:32.466Z,25.27
2022-08-27T23:46:05.012Z,25.27
2022-08-27T23:48:39.482Z,25.27
2022-08-27T23:51:12.215Z,25.27
2022-08-27T23:53:44.396Z,25.24
2022-08-27T23:56:16.546Z,25.20
2022-08-27T23:58:48.974Z,25.19
